Terminal Aerodrome Forecast
Issued by NWS

Home | Current Version | Previous Version | Text Only | Print | Product List | Glossary On
Versions: 1 2 3 4 5 6 7 8 9 10 11 12 13 14 15 16 17 18 19 20 21 22
378
FTUS43 KIWX 131512 AAB
TAFSBN
TAF AMD
KSBN 131512Z 1315/1412 29010KT 1SM -SN BR BKN015 OVC050
      TEMPO 1315/1317 1/2SM -SN FZFG VV013
     FM131700 29012KT 4SM -SHSN SCT015 OVC035
      TEMPO 1317/1319 1SM -SHSN OVC012
     FM132300 29007KT P6SM BKN035
     FM140400 VRB03KT P6SM FEW050 SCT250=

USA.gov is the U.S. government's official web portal to all federal, state and local government web resources and services.